createdAt,value
2019-01-21T09:10:59.538Z,99.99
2019-01-21T09:12:00.907Z,99.99
2019-01-21T09:13:02.277Z,99.99
2019-01-21T09:14:03.661Z,99.99
2019-01-21T09:15:05.038Z,99.99
2019-01-21T09:16:06.421Z,99.99
2019-01-21T09:17:07.801Z,99.99
2019-01-21T09:18:09.175Z,99.99
2019-01-21T09:19:10.556Z,99.99
2019-01-21T09:20:11.939Z,99.99
2019-01-21T09:21:13.317Z,99.99
2019-01-21T09:22:14.703Z,99.99
2019-01-21T09:23:16.082Z,99.99
2019-01-21T09:24:17.467Z,99.99
2019-01-21T09:25:18.856Z,99.99
2019-01-21T09:26:20.239Z,99.99
2019-01-21T09:27:21.618Z,99.99
2019-01-21T09:28:23.030Z,99.99
2019-01-21T09:29:24.412Z,99.99
2019-01-21T09:30:25.796Z,99.99
2019-01-21T09:31:27.178Z,99.99
2019-01-21T09:32:28.565Z,99.99
2019-01-21T09:33:29.947Z,99.99
2019-01-21T09:34:31.330Z,99.99
2019-01-21T09:35:32.717Z,99.99
2019-01-21T09:36:34.102Z,99.99
2019-01-21T09:37:35.495Z,99.99
2019-01-21T09:38:36.880Z,99.99
2019-01-21T09:39:38.280Z,99.99
2019-01-21T09:40:39.664Z,99.99
2019-01-21T09:41:41.045Z,99.99
2019-01-21T09:42:42.432Z,99.99
2019-01-21T09:43:43.809Z,99.99
2019-01-21T09:44:45.195Z,99.99
2019-01-21T09:45:46.579Z,99.99
2019-01-21T09:46:47.967Z,99.99
2019-01-21T09:47:49.351Z,99.99
2019-01-21T09:48:50.728Z,99.99
2019-01-21T09:49:52.115Z,99.99
2019-01-21T09:50:53.497Z,99.99
2019-01-21T09:51:54.888Z,99.99
2019-01-21T09:52:56.281Z,99.99
2019-01-21T09:53:57.663Z,99.99
2019-01-21T09:54:59.057Z,99.99
2019-01-21T09:56:00.440Z,99.99
2019-01-21T09:57:01.826Z,99.99
2019-01-21T09:58:03.216Z,99.99
2019-01-21T09:59:04.600Z,99.99
2019-01-21T10:00:05.990Z,99.99
2019-01-21T10:01:07.729Z,99.99
2019-01-21T10:02:08.721Z,99.99
2019-01-21T10:03:10.121Z,99.99
2019-01-21T10:04:11.523Z,99.99
2019-01-21T10:05:12.920Z,99.99
2019-01-21T10:06:14.306Z,99.99
2019-01-21T10:07:15.693Z,99.99
2019-01-21T10:08:17.069Z,99.99
2019-01-21T10:09:18.456Z,99.99
2019-01-21T10:10:19.851Z,99.99
2019-01-21T10:11:21.227Z,99.28
2019-01-21T10:12:22.626Z,98.05
2019-01-21T10:13:24.010Z,97.44
2019-01-21T10:14:26.223Z,96.21
2019-01-21T10:15:27.620Z,96.31
2019-01-21T10:16:29.003Z,96.31
2019-01-21T10:17:30.385Z,95.64
2019-01-21T10:18:31.764Z,94.70
2019-01-21T10:19:33.148Z,93.37
2019-01-21T10:20:34.546Z,91.48
2019-01-21T10:21:35.930Z,91.39
2019-01-21T10:22:37.342Z,91.20
2019-01-21T10:23:38.726Z,91.20
2019-01-21T10:24:40.126Z,91.39
2019-01-21T10:25:41.526Z,91.58
2019-01-21T10:26:43.020Z,91.48
2019-01-21T10:27:44.400Z,91.20
2019-01-21T10:28:48.270Z,90.91
2019-01-21T10:29:49.920Z,90.82
2019-01-21T10:30:53.870Z,91.39
2019-01-21T10:31:59.328Z,91.39
2019-01-21T10:32:56.629Z,91.96
2019-01-21T10:33:58.001Z,92.05
2019-01-21T10:34:59.388Z,92.05
2019-01-21T10:36:00.776Z,91.67
2019-01-21T10:37:02.161Z,91.10
2019-01-21T10:38:03.575Z,91.01
2019-01-21T10:39:04.945Z,91.20
2019-01-21T10:40:08.030Z,91.39
2019-01-21T10:41:07.673Z,91.58
2019-01-21T10:42:09.049Z,91.01
2019-01-21T10:43:10.434Z,90.44
2019-01-21T10:44:11.818Z,89.97
2019-01-21T10:45:13.206Z,90.16
2019-01-21T10:46:14.584Z,89.97
2019-01-21T10:47:15.965Z,90.16
2019-01-21T10:48:17.346Z,89.97
2019-01-21T10:49:18.725Z,90.53
2019-01-21T10:50:20.112Z,90.63
2019-01-21T10:51:21.492Z,90.72
2019-01-21T10:52:22.872Z,91.20
2019-01-21T10:53:24.256Z,91.20
2019-01-21T10:54:25.684Z,91.20
2019-01-21T10:55:27.026Z,90.82
2019-01-21T10:56:28.403Z,91.10
2019-01-21T10:57:29.778Z,91.10
2019-01-21T10:58:31.160Z,91.01
2019-01-21T10:59:32.546Z,90.44
2019-01-21T11:00:33.928Z,90.53
2019-01-21T11:01:35.318Z,91.10
2019-01-21T11:02:36.696Z,90.53
2019-01-21T11:03:38.078Z,90.63
2019-01-21T11:04:39.464Z,90.44
2019-01-21T11:05:40.847Z,90.34
2019-01-21T11:06:42.233Z,90.91
2019-01-21T11:07:43.615Z,91.01
2019-01-21T11:08:45.002Z,90.82
2019-01-21T11:09:46.383Z,91.10
2019-01-21T11:10:48.529Z,90.53
2019-01-21T11:11:53.989Z,90.53
2019-01-21T11:12:50.507Z,90.63
2019-01-21T11:13:51.924Z,89.78
2019-01-21T11:14:53.367Z,89.31
2019-01-21T11:15:54.786Z,89.21
2019-01-21T11:16:56.170Z,89.59
2019-01-21T11:17:59.111Z,90.16
2019-01-21T11:19:00.500Z,89.97
2019-01-21T11:20:04.244Z,89.78
2019-01-21T11:21:03.259Z,89.97
2019-01-21T11:22:04.668Z,90.06
2019-01-21T11:23:06.401Z,90.06
2019-01-21T11:24:07.447Z,90.25
2019-01-21T11:25:08.864Z,89.87
2019-01-21T11:26:12.962Z,89.78
2019-01-21T11:27:11.626Z,89.78
2019-01-21T11:28:13.042Z,89.87
2019-01-21T11:29:14.439Z,89.78
2019-01-21T11:30:15.842Z,90.34
2019-01-21T11:31:17.253Z,90.25
2019-01-21T11:32:18.681Z,90.34
2019-01-21T11:33:20.078Z,89.87
2019-01-21T11:34:21.464Z,90.25
2019-01-21T11:35:22.867Z,90.16
2019-01-21T11:36:24.247Z,90.53
2019-01-21T11:37:25.617Z,90.44
2019-01-21T11:38:27.035Z,90.44
2019-01-21T11:39:28.463Z,90.91
2019-01-21T11:40:29.901Z,90.91
2019-01-21T11:41:31.282Z,91.01
2019-01-21T11:42:32.663Z,91.01
2019-01-21T11:43:34.048Z,91.20
2019-01-21T11:44:35.437Z,91.20
2019-01-21T11:45:36.821Z,91.77
2019-01-21T11:46:38.206Z,91.86
2019-01-21T11:47:39.586Z,91.58
2019-01-21T11:48:40.962Z,91.01
2019-01-21T11:49:42.346Z,91.01
2019-01-21T11:50:43.728Z,91.10
2019-01-21T11:51:45.117Z,91.01
2019-01-21T11:52:46.484Z,91.10
2019-01-21T11:53:47.865Z,91.48
2019-01-21T11:54:49.243Z,91.39
2019-01-21T11:55:50.626Z,91.29
2019-01-21T11:56:52.004Z,91.20
2019-01-21T11:57:53.389Z,91.01
2019-01-21T11:58:54.774Z,91.20
2019-01-21T11:59:56.157Z,90.82
2019-01-21T12:00:57.533Z,91.10
2019-01-21T12:01:58.907Z,91.58
2019-01-21T12:03:00.292Z,91.58
2019-01-21T12:04:02.583Z,91.48
2019-01-21T12:05:03.971Z,91.58
2019-01-21T12:06:05.345Z,91.62
2019-01-21T12:07:06.727Z,91.72
2019-01-21T12:08:08.122Z,92.29
2019-01-21T12:09:09.511Z,92.57
2019-01-21T12:10:10.885Z,92.85
2019-01-21T12:11:12.278Z,92.85
2019-01-21T12:12:13.660Z,92.94
2019-01-21T12:13:15.041Z,92.90
2019-01-21T12:14:16.422Z,92.66
2019-01-21T12:15:17.800Z,92.10
2019-01-21T12:16:19.178Z,92.38
2019-01-21T12:17:20.563Z,92.19
2019-01-21T12:18:21.948Z,92.47
2019-01-21T12:19:23.338Z,92.85
2019-01-21T12:20:24.714Z,92.66
2019-01-21T12:21:26.108Z,93.13
2019-01-21T12:22:27.494Z,92.85
2019-01-21T12:23:28.872Z,93.32
2019-01-21T12:24:30.254Z,93.80
2019-01-21T12:25:31.631Z,93.70
2019-01-21T12:26:33.013Z,94.08
2019-01-21T12:27:34.403Z,93.32
2019-01-21T12:28:35.775Z,93.61
2019-01-21T12:29:37.154Z,93.32
2019-01-21T12:30:38.539Z,93.32
2019-01-21T12:31:39.911Z,93.89
2019-01-21T12:32:41.300Z,93.99
2019-01-21T12:33:42.675Z,94.27
2019-01-21T12:34:44.057Z,94.18
2019-01-21T12:35:45.442Z,94.27
2019-01-21T12:36:46.825Z,93.70
2019-01-21T12:37:48.205Z,93.89
2019-01-21T12:38:49.585Z,93.89
2019-01-21T12:39:50.967Z,94.27
2019-01-21T12:40:52.348Z,93.70
2019-01-21T12:41:53.733Z,94.08
2019-01-21T12:42:55.113Z,94.18
2019-01-21T12:43:56.491Z,94.08
2019-01-21T12:44:57.872Z,94.46
2019-01-21T12:45:59.252Z,93.99
2019-01-21T12:47:00.632Z,93.61
2019-01-21T12:48:02.019Z,93.89
2019-01-21T12:49:03.400Z,93.61
2019-01-21T12:50:04.776Z,93.61
2019-01-21T12:51:06.168Z,93.70
2019-01-21T12:52:07.546Z,93.80
2019-01-21T12:53:08.936Z,93.70
2019-01-21T12:54:10.312Z,93.99
2019-01-21T12:55:11.703Z,94.08
2019-01-21T12:56:13.090Z,93.61
2019-01-21T12:57:14.485Z,93.89
2019-01-21T12:58:15.859Z,93.70
2019-01-21T12:59:17.255Z,93.89
2019-01-21T13:00:18.667Z,93.70
2019-01-21T13:01:20.045Z,93.04
2019-01-21T13:02:21.429Z,93.13
2019-01-21T13:03:22.813Z,93.70
2019-01-21T13:04:24.187Z,93.89
2019-01-21T13:05:25.569Z,93.70
2019-01-21T13:06:26.941Z,93.61
2019-01-21T13:07:28.343Z,93.70
2019-01-21T13:08:29.723Z,93.80
2019-01-21T13:09:31.106Z,93.51
2019-01-21T13:10:32.489Z,93.61
2019-01-21T13:11:33.868Z,93.51
2019-01-21T13:12:35.252Z,93.32
2019-01-21T13:13:36.637Z,93.99
2019-01-21T13:14:38.024Z,93.80
2019-01-21T13:15:39.400Z,93.42
2019-01-21T13:16:40.784Z,93.70
2019-01-21T13:17:42.170Z,94.08
2019-01-21T13:18:43.556Z,93.42
2019-01-21T13:19:44.944Z,93.89
2019-01-21T13:20:46.326Z,93.89
2019-01-21T13:21:47.702Z,94.27
2019-01-21T13:22:51.635Z,93.89
2019-01-21T13:23:50.428Z,94.37
2019-01-21T13:24:51.806Z,94.74
2019-01-21T13:25:53.198Z,94.56
2019-01-21T13:26:54.585Z,94.93
2019-01-21T13:27:55.969Z,95.59
2019-01-21T13:28:57.348Z,95.69
2019-01-21T13:29:58.732Z,95.40
2019-01-21T13:31:00.109Z,95.31
2019-01-21T13:32:01.497Z,95.97
2019-01-21T13:33:02.884Z,95.88
2019-01-21T13:34:04.271Z,96.07
2019-01-21T13:35:05.645Z,96.07
2019-01-21T13:36:07.032Z,95.97
2019-01-21T13:37:08.409Z,95.59
2019-01-21T13:38:09.782Z,95.59
2019-01-21T13:39:11.165Z,95.31
2019-01-21T13:40:12.541Z,95.31
2019-01-21T13:41:13.920Z,95.59
2019-01-21T13:42:15.300Z,95.97
2019-01-21T13:43:16.680Z,95.69
2019-01-21T13:44:18.063Z,95.21
2019-01-21T13:45:19.452Z,95.21
2019-01-21T13:46:20.831Z,95.12
2019-01-21T13:47:22.214Z,95.40
2019-01-21T13:48:23.601Z,95.40
2019-01-21T13:49:24.993Z,96.07
2019-01-21T13:50:26.363Z,96.07
2019-01-21T13:51:27.756Z,95.97
2019-01-21T13:52:29.138Z,96.07
2019-01-21T13:53:30.527Z,95.31
2019-01-21T13:54:31.921Z,95.69
2019-01-21T13:55:33.294Z,96.07
2019-01-21T13:56:34.679Z,95.69
2019-01-21T13:57:36.053Z,95.88
2019-01-21T13:58:37.435Z,95.59
2019-01-21T13:59:38.809Z,96.73
2019-01-21T14:00:40.190Z,96.54
2019-01-21T14:01:41.567Z,96.64
2019-01-21T14:02:42.954Z,96.64
2019-01-21T14:03:44.331Z,96.64
2019-01-21T14:04:45.709Z,96.83
2019-01-21T14:05:47.093Z,96.64
2019-01-21T14:06:48.476Z,97.20
2019-01-21T14:07:49.855Z,97.20
2019-01-21T14:08:51.243Z,97.20
2019-01-21T14:09:52.625Z,97.20
2019-01-21T14:10:54.014Z,97.58
2019-01-21T14:11:55.394Z,97.86
2019-01-21T14:12:56.784Z,97.49
2019-01-21T14:13:58.162Z,97.58
2019-01-21T14:15:00.433Z,97.86
2019-01-21T14:16:00.881Z,97.58
2019-01-21T14:17:02.266Z,97.67
2019-01-21T14:18:03.652Z,97.67
2019-01-21T14:19:05.034Z,97.86
2019-01-21T14:20:06.416Z,97.86
2019-01-21T14:21:07.798Z,97.77
2019-01-21T14:22:09.162Z,98.24
2019-01-21T14:23:10.554Z,98.14
2019-01-21T14:24:11.937Z,98.05
2019-01-21T14:25:13.313Z,98.62
2019-01-21T14:26:14.691Z,99.09
2019-01-21T14:27:16.081Z,98.81
2019-01-21T14:28:17.465Z,99.00
2019-01-21T14:29:18.843Z,99.38
2019-01-21T14:30:20.219Z,99.28
2019-01-21T14:31:21.611Z,99.57
2019-01-21T14:32:22.990Z,99.76
2019-01-21T14:33:24.364Z,99.66
2019-01-21T14:34:25.744Z,99.85
2019-01-21T14:35:27.128Z,99.57
2019-01-21T14:36:28.522Z,99.66
2019-01-21T14:37:29.904Z,99.47
2019-01-21T14:38:31.282Z,99.47
2019-01-21T14:39:32.662Z,99.66
2019-01-21T14:40:34.051Z,99.66
2019-01-21T14:41:35.429Z,99.76
2019-01-21T14:42:36.812Z,99.99
2019-01-21T14:43:38.204Z,99.95
2019-01-21T14:44:39.592Z,99.99
2019-01-21T14:45:40.976Z,99.99
2019-01-21T14:46:42.349Z,99.99
2019-01-21T14:47:43.737Z,99.99
2019-01-21T14:48:45.144Z,99.99
2019-01-21T14:49:46.499Z,99.99
2019-01-21T14:50:50.542Z,99.99
2019-01-21T14:51:49.218Z,99.99
2019-01-21T14:52:50.602Z,99.99
2019-01-21T14:53:51.980Z,99.99
2019-01-21T14:54:53.377Z,99.99
2019-01-21T14:55:54.766Z,99.99
2019-01-21T14:56:56.126Z,99.99
2019-01-21T14:57:58.169Z,99.99
2019-01-21T14:58:59.545Z,99.99
2019-01-21T15:00:00.948Z,99.99
2019-01-21T15:01:02.310Z,99.99
2019-01-21T15:02:03.758Z,99.99
2019-01-21T15:03:05.034Z,99.99
2019-01-21T15:04:06.439Z,99.99
2019-01-21T15:05:07.787Z,99.99
2019-01-21T15:06:09.205Z,99.99
2019-01-21T15:07:10.508Z,99.99
2019-01-21T15:08:11.928Z,99.99
2019-01-21T15:09:13.297Z,99.99
2019-01-21T15:10:14.661Z,99.99
2019-01-21T15:11:16.103Z,99.99
2019-01-21T15:12:17.475Z,99.99
2019-01-21T15:13:18.766Z,99.99
2019-01-21T15:14:20.122Z,99.99
2019-01-21T15:15:21.494Z,99.99
2019-01-21T15:16:22.923Z,99.99
2019-01-21T15:17:24.298Z,99.99
2019-01-21T15:18:25.686Z,99.99
2019-01-21T15:19:27.015Z,99.99
2019-01-21T15:20:28.348Z,99.99
2019-01-21T15:21:29.730Z,99.99
2019-01-21T15:22:31.665Z,99.99
2019-01-21T15:23:32.473Z,99.99
2019-01-21T15:24:33.942Z,99.99
2019-01-21T15:25:35.290Z,99.99
2019-01-21T15:26:36.647Z,99.99
2019-01-21T15:27:38.118Z,99.99
2019-01-21T15:28:39.372Z,99.99
2019-01-21T15:29:40.810Z,99.99
2019-01-21T15:30:42.200Z,99.99
2019-01-21T15:31:43.616Z,99.99
2019-01-21T15:32:44.947Z,99.99
2019-01-21T15:33:46.197Z,99.99
2019-01-21T15:34:47.698Z,99.99
2019-01-21T15:35:48.992Z,99.99
2019-01-21T15:36:50.319Z,99.99
2019-01-21T15:37:51.832Z,99.99
2019-01-21T15:38:53.061Z,99.99
2019-01-21T15:39:54.489Z,99.99
2019-01-21T15:40:55.844Z,99.99
2019-01-21T15:41:57.200Z,99.99
2019-01-21T15:42:58.627Z,99.99
2019-01-21T15:43:59.956Z,99.99
2019-01-21T15:45:01.374Z,99.99
2019-01-21T15:46:02.771Z,99.99
2019-01-21T15:47:04.189Z,99.99
2019-01-21T15:48:05.434Z,99.99
2019-01-21T15:49:06.814Z,99.99
2019-01-21T15:50:08.184Z,99.99
2019-01-21T15:51:09.557Z,99.99
2019-01-21T15:52:10.931Z,99.99
2019-01-21T15:53:12.307Z,99.99
2019-01-21T15:54:13.703Z,99.99
2019-01-21T15:55:15.074Z,99.99
2019-01-21T15:56:16.456Z,99.99
2019-01-21T15:57:17.830Z,99.99
2019-01-21T15:58:19.311Z,99.99
2019-01-21T15:59:20.575Z,99.99
2019-01-21T16:00:21.957Z,99.99
2019-01-21T16:01:23.336Z,99.99
2019-01-21T16:02:24.719Z,99.99
2019-01-21T16:03:26.106Z,99.99
2019-01-21T16:04:27.484Z,99.99
2019-01-21T16:05:28.862Z,99.99
2019-01-21T16:06:30.240Z,99.99
2019-01-21T16:07:31.619Z,99.99
2019-01-21T16:08:32.993Z,99.99
2019-01-21T16:09:34.381Z,99.99
2019-01-21T16:10:35.763Z,99.99
2019-01-21T16:11:37.147Z,99.99
2019-01-21T16:12:38.527Z,99.99
2019-01-21T16:13:39.914Z,99.99
2019-01-21T16:14:41.301Z,99.99
2019-01-21T16:15:42.676Z,99.99
2019-01-21T16:16:44.058Z,99.99
2019-01-21T16:17:45.437Z,99.99
2019-01-21T16:18:46.817Z,99.99
2019-01-21T16:19:48.203Z,99.99
2019-01-21T16:20:49.577Z,99.99
2019-01-21T16:21:50.953Z,99.99
2019-01-21T16:22:52.326Z,99.99
2019-01-21T16:23:53.709Z,99.99
2019-01-21T16:24:55.076Z,99.99
2019-01-21T16:25:56.452Z,99.99
2019-01-21T16:26:57.836Z,99.99
2019-01-21T16:27:59.218Z,99.99
2019-01-21T16:29:00.602Z,99.99
2019-01-21T16:30:01.977Z,99.99
2019-01-21T16:31:03.350Z,99.99
2019-01-21T16:32:04.731Z,99.99
2019-01-21T16:33:06.110Z,99.99
2019-01-21T16:34:07.500Z,99.99
2019-01-21T16:35:08.887Z,99.99
2019-01-21T16:36:10.263Z,99.99
2019-01-21T16:37:11.642Z,99.99
2019-01-21T16:38:13.023Z,99.99
2019-01-21T16:39:14.403Z,99.99
2019-01-21T16:40:15.784Z,99.99
2019-01-21T16:41:17.169Z,99.99
2019-01-21T16:42:18.548Z,99.99
2019-01-21T16:43:19.931Z,99.99
2019-01-21T16:44:21.309Z,99.99
2019-01-21T16:45:22.698Z,99.99
2019-01-21T16:46:24.073Z,99.99
2019-01-21T16:47:26.558Z,99.99
2019-01-21T16:48:26.791Z,99.99
2019-01-21T16:49:28.175Z,99.99
2019-01-21T16:50:29.548Z,99.99
2019-01-21T16:51:30.931Z,99.99
2019-01-21T16:52:32.333Z,99.99
2019-01-21T16:53:33.704Z,99.99
2019-01-21T16:54:35.083Z,99.99
2019-01-21T16:55:36.459Z,99.99
2019-01-21T16:56:37.840Z,99.99
2019-01-21T16:57:39.225Z,99.99
2019-01-21T16:58:40.602Z,99.99
2019-01-21T16:59:41.990Z,99.99
2019-01-21T17:00:43.364Z,99.99
2019-01-21T17:01:44.749Z,99.99
2019-01-21T17:02:46.119Z,99.99
2019-01-21T17:03:47.510Z,99.99
2019-01-21T17:04:48.910Z,99.99
2019-01-21T17:05:50.276Z,99.99
2019-01-21T17:06:51.672Z,99.99
2019-01-21T17:07:53.045Z,99.99
2019-01-21T17:08:54.421Z,99.99
2019-01-21T17:09:55.799Z,99.99
2019-01-21T17:10:57.176Z,99.99
2019-01-21T17:11:58.559Z,99.99
2019-01-21T17:12:59.933Z,99.99
2019-01-21T17:14:01.315Z,99.99
2019-01-21T17:15:02.720Z,99.99
2019-01-21T17:16:04.102Z,99.99
2019-01-21T17:17:05.483Z,99.99
2019-01-21T17:18:06.860Z,99.99
2019-01-21T17:19:08.236Z,99.99
2019-01-21T17:20:09.618Z,99.99
2019-01-21T17:21:10.998Z,99.99
2019-01-21T17:22:12.366Z,99.99
2019-01-21T17:23:13.760Z,99.99
2019-01-21T17:24:15.150Z,99.99
2019-01-21T17:25:16.525Z,99.99
2019-01-21T17:26:17.906Z,99.99
2019-01-21T17:27:19.282Z,99.99
2019-01-21T17:28:20.661Z,99.99
2019-01-21T17:29:22.047Z,99.99
2019-01-21T17:30:23.422Z,99.99
2019-01-21T17:31:24.804Z,99.99
2019-01-21T17:32:26.195Z,99.99
2019-01-21T17:33:27.573Z,99.99
2019-01-21T17:34:28.965Z,99.99
2019-01-21T17:35:30.343Z,99.99
2019-01-21T17:36:31.705Z,99.99
2019-01-21T17:37:33.091Z,99.99
2019-01-21T17:38:34.474Z,99.99
2019-01-21T17:39:35.849Z,99.99
2019-01-21T17:40:37.243Z,99.99
2019-01-21T17:41:38.619Z,99.99
2019-01-21T17:42:40.011Z,99.99
2019-01-21T17:43:41.375Z,99.99
2019-01-21T17:44:42.755Z,99.99
2019-01-21T17:45:44.133Z,99.99
2019-01-21T17:46:45.502Z,99.99
2019-01-21T17:47:46.880Z,99.99
2019-01-21T17:48:48.282Z,99.99
2019-01-21T17:49:49.661Z,99.99
2019-01-21T17:50:51.046Z,99.99
2019-01-21T17:51:52.425Z,99.99
2019-01-21T17:52:53.808Z,99.99
2019-01-21T17:53:55.195Z,99.99
2019-01-21T17:54:56.569Z,99.99
2019-01-21T17:55:57.956Z,99.99
2019-01-21T17:56:59.340Z,99.99
2019-01-21T17:58:00.734Z,99.99
2019-01-21T17:59:02.119Z,99.99
2019-01-21T18:00:03.533Z,99.99
2019-01-21T18:01:04.923Z,99.99
2019-01-21T18:02:06.304Z,99.99
2019-01-21T18:03:07.679Z,99.99
2019-01-21T18:04:09.066Z,99.99
2019-01-21T18:05:10.448Z,99.99
2019-01-21T18:06:11.835Z,99.99
2019-01-21T18:07:13.205Z,99.99
2019-01-21T18:08:14.591Z,99.99
2019-01-21T18:09:15.987Z,99.99
2019-01-21T18:10:17.391Z,99.99
2019-01-21T18:11:18.763Z,99.99
2019-01-21T18:12:20.153Z,99.99
2019-01-21T18:13:21.558Z,99.99
2019-01-21T18:14:22.945Z,99.99
2019-01-21T18:15:24.331Z,99.99
2019-01-21T18:16:25.709Z,99.99
2019-01-21T18:17:27.093Z,99.99
2019-01-21T18:18:28.474Z,99.99
2019-01-21T18:19:29.861Z,99.99
2019-01-21T18:20:31.229Z,99.99
2019-01-21T18:21:32.611Z,99.99
2019-01-21T18:22:33.996Z,99.99
2019-01-21T18:23:35.390Z,99.99
2019-01-21T18:24:36.773Z,99.99
2019-01-21T18:25:38.173Z,99.99
2019-01-21T18:26:39.549Z,99.99
2019-01-21T18:27:40.952Z,99.99
2019-01-21T18:28:42.330Z,99.99
2019-01-21T18:29:43.717Z,99.99
2019-01-21T18:30:45.111Z,99.99
2019-01-21T18:31:46.495Z,99.99
2019-01-21T18:32:47.902Z,99.99
2019-01-21T18:33:49.310Z,99.99
2019-01-21T18:34:50.689Z,99.99
2019-01-21T18:35:52.099Z,99.99
2019-01-21T18:36:53.481Z,99.99
2019-01-21T18:37:54.896Z,99.99
2019-01-21T18:38:56.284Z,99.99
2019-01-21T18:39:57.661Z,99.99
2019-01-21T18:40:59.044Z,99.99
2019-01-21T18:42:00.447Z,99.99
2019-01-21T18:43:02.062Z,99.99
2019-01-21T18:44:03.453Z,99.99
2019-01-21T18:45:04.847Z,99.99
2019-01-21T18:46:06.251Z,99.99
2019-01-21T18:47:07.631Z,99.99
2019-01-21T18:48:09.021Z,99.99
2019-01-21T18:49:10.410Z,99.99
2019-01-21T18:50:11.822Z,99.99
2019-01-21T18:51:13.198Z,99.99
2019-01-21T18:52:14.616Z,99.99
2019-01-21T18:53:16.030Z,99.99
2019-01-21T18:54:17.429Z,99.99
2019-01-21T18:55:19.637Z,99.99
2019-01-21T18:56:21.039Z,99.99
2019-01-21T18:57:22.446Z,99.99
2019-01-21T18:58:23.848Z,99.99
2019-01-21T18:59:25.228Z,99.99
2019-01-21T19:00:27.242Z,99.99
2019-01-21T19:01:28.658Z,99.99
2019-01-21T19:02:30.045Z,99.99
2019-01-21T19:03:31.466Z,99.99
2019-01-21T19:04:32.897Z,99.99
2019-01-21T19:05:34.295Z,99.99
2019-01-21T19:06:35.709Z,99.99
2019-01-21T19:07:37.121Z,99.99
2019-01-21T19:08:38.513Z,99.99
2019-01-21T19:09:40.538Z,99.99
2019-01-21T19:10:41.934Z,99.99
2019-01-21T19:11:44.566Z,99.99
2019-01-21T19:12:46.573Z,99.99
2019-01-21T19:13:49.131Z,99.99
2019-01-21T19:14:50.625Z,99.99
2019-01-21T19:15:52.733Z,99.99
2019-01-21T19:16:55.640Z,99.99
2019-01-21T19:17:57.544Z,99.99
2019-01-21T19:18:58.999Z,99.99
2019-01-21T19:20:00.417Z,99.99
2019-01-21T19:21:01.818Z,99.99
2019-01-21T19:22:03.280Z,99.99
2019-01-21T19:23:04.724Z,99.99
2019-01-21T19:24:07.166Z,99.99
2019-01-21T19:25:08.589Z,99.99
2019-01-21T19:26:10.053Z,99.99
2019-01-21T19:27:11.493Z,99.99
2019-01-21T19:28:12.920Z,99.99
2019-01-21T19:29:14.799Z,99.99
2019-01-21T19:30:16.250Z,99.99
2019-01-21T19:31:17.694Z,99.99
2019-01-21T19:32:19.116Z,99.99
2019-01-21T19:33:21.211Z,99.99
2019-01-21T19:34:23.492Z,99.99
2019-01-21T19:35:24.949Z,99.99
2019-01-21T19:36:26.382Z,99.99
2019-01-21T19:37:27.823Z,99.99
2019-01-21T19:38:30.717Z,99.99
2019-01-21T19:39:32.179Z,99.99
2019-01-21T19:40:33.637Z,99.99
2019-01-21T19:41:35.080Z,99.99
2019-01-21T19:42:36.515Z,99.99
2019-01-21T19:43:37.962Z,99.99
2019-01-21T19:44:40.151Z,99.99
2019-01-21T19:45:43.206Z,99.99
2019-01-21T19:46:45.790Z,99.99
2019-01-21T19:47:48.057Z,99.99
2019-01-21T19:48:52.162Z,99.99
2019-01-21T19:49:55.661Z,99.99
2019-01-21T19:50:57.830Z,99.99
2019-01-21T19:52:00.408Z,99.99
2019-01-21T19:53:02.242Z,99.99
2019-01-21T19:54:03.706Z,99.99
2019-01-21T19:55:05.165Z,99.99
2019-01-21T19:56:07.302Z,99.99
2019-01-21T19:57:09.604Z,99.99
2019-01-21T19:58:10.196Z,99.99
2019-01-21T19:59:12.251Z,99.99
2019-01-21T20:00:13.713Z,99.99
2019-01-21T20:01:16.852Z,99.99
2019-01-21T20:02:18.296Z,99.99
2019-01-21T20:03:19.770Z,99.99
2019-01-21T20:04:21.911Z,99.99
2019-01-21T20:05:24.268Z,99.99
2019-01-21T20:06:25.691Z,99.99
2019-01-21T20:07:27.845Z,99.99
2019-01-21T20:08:30.212Z,99.99
2019-01-21T20:09:31.669Z,99.99
2019-01-21T20:10:33.155Z,99.99
2019-01-21T20:11:35.414Z,99.99
2019-01-21T20:12:36.877Z,99.99
2019-01-21T20:13:38.303Z,99.99
2019-01-21T20:14:40.490Z,99.99
2019-01-21T20:15:41.921Z,99.99
2019-01-21T20:16:43.335Z,99.99
2019-01-21T20:17:44.781Z,99.99
2019-01-21T20:18:46.252Z,99.99
2019-01-21T20:19:47.659Z,99.99
2019-01-21T20:20:49.737Z,99.99
2019-01-21T20:21:52.202Z,99.99
2019-01-21T20:22:57.462Z,99.99
2019-01-21T20:23:54.990Z,99.99
2019-01-21T20:24:57.986Z,99.99
2019-01-21T20:25:59.435Z,99.99
2019-01-21T20:27:00.890Z,99.99
2019-01-21T20:28:03.066Z,99.99
2019-01-21T20:29:05.279Z,99.99
2019-01-21T20:30:06.734Z,99.99
2019-01-21T20:31:09.140Z,99.99
2019-01-21T20:32:10.561Z,99.99
2019-01-21T20:33:11.986Z,99.99
2019-01-21T20:34:14.087Z,99.99
2019-01-21T20:35:15.578Z,99.99
2019-01-21T20:36:18.677Z,99.99
2019-01-21T20:37:20.153Z,99.99
2019-01-21T20:38:21.606Z,99.99
2019-01-21T20:39:23.058Z,99.99
2019-01-21T20:40:25.129Z,99.99
2019-01-21T20:41:26.539Z,99.99
2019-01-21T20:42:28.002Z,99.99
2019-01-21T20:43:31.279Z,99.99
2019-01-21T20:44:32.707Z,99.99
2019-01-21T20:45:36.887Z,99.99
2019-01-21T20:46:39.049Z,99.99
2019-01-21T20:47:41.642Z,99.99
2019-01-21T20:48:43.074Z,99.99
2019-01-21T20:49:45.096Z,99.99
2019-01-21T20:50:46.543Z,99.99
2019-01-21T20:51:47.966Z,99.99
2019-01-21T20:52:49.372Z,99.99
2019-01-21T20:53:51.301Z,99.99
2019-01-21T20:54:52.775Z,99.99
2019-01-21T20:55:54.210Z,99.99
2019-01-21T20:56:55.676Z,99.99
2019-01-21T20:57:57.139Z,99.99
2019-01-21T20:58:58.594Z,99.99
2019-01-21T20:59:59.979Z,99.99
2019-01-21T21:01:02.124Z,99.99
2019-01-21T21:02:03.502Z,99.99
2019-01-21T21:03:04.908Z,99.99
2019-01-21T21:04:06.300Z,99.99
2019-01-21T21:05:07.723Z,99.99
2019-01-21T21:06:09.121Z,99.99
2019-01-21T21:07:10.551Z,99.99
2019-01-21T21:08:11.959Z,99.99
2019-01-21T21:09:13.358Z,99.99
2019-01-21T21:10:14.790Z,99.99
2019-01-21T21:11:16.179Z,99.99
2019-01-21T21:12:17.586Z,99.99
2019-01-21T21:13:18.971Z,99.99
2019-01-21T21:14:20.390Z,99.99
2019-01-21T21:15:21.769Z,99.99
2019-01-21T21:16:23.146Z,99.99
2019-01-21T21:17:24.537Z,99.99
2019-01-21T21:18:25.919Z,99.99
2019-01-21T21:19:27.314Z,99.99
2019-01-21T21:20:28.703Z,99.99
2019-01-21T21:21:30.097Z,99.99
2019-01-21T21:22:31.484Z,99.99
2019-01-21T21:23:32.869Z,99.99
2019-01-21T21:24:34.239Z,99.99
2019-01-21T21:25:35.607Z,99.99
2019-01-21T21:26:36.990Z,99.99
2019-01-21T21:27:39.018Z,99.99
2019-01-21T21:28:40.401Z,99.99
2019-01-21T21:29:41.771Z,99.99
2019-01-21T21:30:43.151Z,99.99
2019-01-21T21:31:44.531Z,99.99
2019-01-21T21:32:45.870Z,99.99
2019-01-21T21:33:47.248Z,99.99
2019-01-21T21:34:48.630Z,99.99
2019-01-21T21:35:49.996Z,99.99
2019-01-21T21:36:51.378Z,99.99
2019-01-21T21:37:52.757Z,99.99
2019-01-21T21:38:54.133Z,99.99
2019-01-21T21:39:55.581Z,99.99
2019-01-21T21:40:56.969Z,99.99
2019-01-21T21:41:58.353Z,99.99
2019-01-21T21:42:59.686Z,99.99
2019-01-21T21:44:01.080Z,99.99
2019-01-21T21:45:02.469Z,99.99
2019-01-21T21:46:03.850Z,99.99
2019-01-21T21:47:05.226Z,99.99
2019-01-21T21:48:06.605Z,99.99
2019-01-21T21:49:07.974Z,99.99
2019-01-21T21:50:09.362Z,99.99
2019-01-21T21:51:10.733Z,99.99
2019-01-21T21:52:12.120Z,99.99
2019-01-21T21:53:13.456Z,99.99
2019-01-21T21:54:14.826Z,99.99
2019-01-21T21:55:16.198Z,99.99
2019-01-21T21:56:17.576Z,99.99
2019-01-21T21:57:18.958Z,99.99
2019-01-21T21:58:20.325Z,99.99
2019-01-21T21:59:21.699Z,99.99
2019-01-21T22:00:23.076Z,99.99
2019-01-21T22:01:24.451Z,99.99
2019-01-21T22:02:25.831Z,99.99
2019-01-21T22:03:27.167Z,99.99
2019-01-21T22:04:28.557Z,99.99
2019-01-21T22:05:29.938Z,99.99
2019-01-21T22:06:31.329Z,99.99
2019-01-21T22:07:32.701Z,99.99
2019-01-21T22:08:34.082Z,99.99
2019-01-21T22:09:35.460Z,99.99
2019-01-21T22:10:36.837Z,99.99
2019-01-21T22:11:38.214Z,99.99
2019-01-21T22:12:39.591Z,99.99
2019-01-21T22:13:40.932Z,99.99
2019-01-21T22:14:42.320Z,99.99
2019-01-21T22:15:43.690Z,99.99
2019-01-21T22:16:45.066Z,99.99
2019-01-21T22:17:46.440Z,99.99
2019-01-21T22:18:47.818Z,99.99
2019-01-21T22:19:49.202Z,99.99
2019-01-21T22:20:50.572Z,99.99
2019-01-21T22:21:51.940Z,99.99